Time;durP1;ratioP1;P1;durP2;ratioP2;P2;SDS_P1;SDS_P2;PMS_P1;PMS_P2;Temp;Humidity;BMP_temperature;BMP_pressure;BME280_temperature;BME280_humidity;BME280_pressure;Samples;Min_cycle;Max_cycle;Signal;HPM_P1;HPM_P2
2021/11/04 00:00:38;;;;;;;18.57;13.97;;;9.00;99.90;;;;;;5054036;28;20441;-50
2021/11/04 00:03:05;;;;;;;18.50;15.87;;;9.40;99.90;;;;;;5054265;28;20435;-50
2021/11/04 00:05:32;;;;;;;17.73;14.20;;;9.20;99.90;;;;;;5054106;28;20549;-50
2021/11/04 00:08:03;;;;;;;17.87;15.47;;;9.30;99.90;;;;;;5053551;28;20923;-51
2021/11/04 00:10:30;;;;;;;17.87;15.20;;;9.50;99.90;;;;;;5054056;28;20465;-51
2021/11/04 00:12:59;;;;;;;18.83;14.80;;;8.90;99.90;;;;;;5053756;28;20435;-50
2021/11/04 00:15:25;;;;;;;19.50;14.70;;;9.10;99.90;;;;;;5053752;28;20527;-50
2021/11/04 00:17:52;;;;;;;18.83;15.17;;;9.10;99.90;;;;;;5053121;28;20943;-50
2021/11/04 00:20:21;;;;;;;18.30;14.87;;;9.50;99.90;;;;;;5053829;28;20810;-49
2021/11/04 00:22:48;;;;;;;18.77;16.13;;;9.00;99.90;;;;;;5053537;28;20941;-49
2021/11/04 00:25:17;;;;;;;19.00;15.97;;;8.80;99.90;;;;;;5053316;28;20505;-49
2021/11/04 00:27:44;;;;;;;19.83;16.37;;;9.40;99.90;;;;;;5077526;22;20466;-48
2021/11/04 00:30:13;;;;;;;20.00;16.10;;;8.60;99.90;;;;;;5053762;28;20451;-46
2021/11/04 00:32:44;;;;;;;21.30;16.20;;;8.90;99.90;;;;;;5055084;28;20438;-46
2021/11/04 00:35:11;;;;;;;22.13;17.30;;;9.00;99.90;;;;;;5054104;28;20430;-46
2021/11/04 00:37:38;;;;;;;20.57;18.37;;;8.90;99.90;;;;;;5053926;28;20513;-49
2021/11/04 00:40:05;;;;;;;21.03;17.97;;;8.80;99.90;;;;;;5035819;28;20431;-48
2021/11/04 00:42:32;;;;;;;20.37;16.87;;;8.90;99.90;;;;;;5053730;28;21040;-47
2021/11/04 00:44:59;;;;;;;22.20;17.77;;;8.90;99.90;;;;;;5053339;28;20474;-49
2021/11/04 00:47:27;;;;;;;21.00;17.47;;;9.30;99.90;;;;;;5053391;28;20446;-47
2021/11/04 00:49:53;;;;;;;19.50;16.83;;;8.50;99.90;;;;;;5053218;28;20451;-47
2021/11/04 00:52:20;;;;;;;23.37;17.53;;;9.30;99.90;;;;;;5053252;28;20422;-47
2021/11/04 00:54:47;;;;;;;20.43;17.00;;;9.00;99.90;;;;;;5053337;28;20525;-47
2021/11/04 00:57:13;;;;;;;22.13;18.60;;;9.00;99.90;;;;;;5053175;28;20437;-47
2021/11/04 00:59:40;;;;;;;22.63;18.10;;;8.80;99.90;;;;;;5052621;28;20450;-47
2021/11/04 01:02:07;;;;;;;23.50;19.43;;;8.90;99.90;;;;;;5053138;28;20942;-47
2021/11/04 01:04:34;;;;;;;23.00;19.67;;;8.80;99.90;;;;;;5052830;28;20798;-47
2021/11/04 01:07:01;;;;;;;22.97;19.00;;;9.20;99.90;;;;;;5053073;28;20953;-47
2021/11/04 01:09:28;;;;;;;25.03;20.00;;;8.80;99.90;;;;;;5052727;28;20461;-48
2021/11/04 01:11:54;;;;;;;22.17;17.73;;;8.90;99.90;;;;;;5053125;28;20426;-46
2021/11/04 01:14:21;;;;;;;24.50;19.30;;;9.00;99.90;;;;;;5053030;28;20435;-47
2021/11/04 01:16:48;;;;;;;22.90;18.60;;;8.90;99.90;;;;;;5052868;28;20446;-48
2021/11/04 01:19:15;;;;;;;22.40;19.17;;;9.00;99.90;;;;;;5052374;28;20974;-46
2021/11/04 01:21:43;;;;;;;23.67;19.67;;;8.60;99.90;;;;;;5052775;28;20439;-48
2021/11/04 01:24:10;;;;;;;25.57;20.30;;;8.40;99.90;;;;;;5052612;28;20434;-48
2021/11/04 01:26:36;;;;;;;24.43;19.70;;;8.80;99.90;;;;;;5053053;28;20797;-47
2021/11/04 01:29:03;;;;;;;23.87;20.20;;;8.80;99.90;;;;;;5051888;28;20466;-46
2021/11/04 01:31:30;;;;;;;24.80;19.53;;;8.70;99.90;;;;;;5052509;28;20443;-47
2021/11/04 01:33:57;;;;;;;25.23;20.13;;;8.90;99.90;;;;;;5052643;28;20911;-47
2021/11/04 01:36:23;;;;;;;25.93;20.27;;;8.90;99.90;;;;;;5057483;28;20439;-46
2021/11/04 01:38:51;;;;;;;32.00;20.97;;;9.40;99.90;;;;;;5052240;28;20455;-47
2021/11/04 01:41:18;;;;;;;28.23;21.00;;;8.80;99.90;;;;;;5052561;28;20474;-46
2021/11/04 01:43:45;;;;;;;22.10;19.70;;;8.80;99.90;;;;;;5052221;28;20438;-47
2021/11/04 01:46:12;;;;;;;27.60;20.43;;;8.60;99.90;;;;;;5052396;28;20975;-46
2021/11/04 01:48:39;;;;;;;25.60;19.60;;;8.80;99.90;;;;;;5051805;28;20451;-46
2021/11/04 01:51:06;;;;;;;25.47;19.67;;;9.10;99.90;;;;;;5052231;28;20409;-46
2021/11/04 01:53:33;;;;;;;23.83;20.33;;;8.80;99.90;;;;;;5052091;28;20790;-47
2021/11/04 01:56:00;;;;;;;24.30;19.03;;;8.80;99.90;;;;;;5052132;28;20441;-47
2021/11/04 01:58:27;;;;;;;24.73;20.43;;;8.90;99.90;;;;;;5051737;28;20833;-46
2021/11/04 02:00:55;;;;;;;26.13;19.57;;;8.80;99.90;;;;;;5052149;28;20438;-46
2021/11/04 02:03:28;;;;;;;24.40;20.43;;;8.70;99.90;;;;;;5052182;28;20419;-46
2021/11/04 02:06:00;;;;;;;23.60;19.93;;;8.80;99.90;;;;;;5051875;28;20975;-49
2021/11/04 02:08:32;;;;;;;31.17;22.53;;;8.70;99.90;;;;;;5051599;28;20808;-47
2021/11/04 02:11:10;;;;;;;25.23;22.53;;;8.70;99.90;;;;;;5051896;28;20427;-47
2021/11/04 02:13:45;;;;;;;27.20;21.80;;;8.70;99.90;;;;;;5052168;28;20457;-48
2021/11/04 02:16:14;;;;;;;26.00;20.23;;;8.70;99.90;;;;;;5051973;28;20473;-45
2021/11/04 02:18:42;;;;;;;31.83;22.60;;;8.40;99.90;;;;;;5051614;28;20447;-48
2021/11/04 02:21:13;;;;;;;29.10;20.87;;;8.60;99.90;;;;;;5051430;28;20855;-49
2021/11/04 02:23:48;;;;;;;23.93;20.93;;;8.70;99.90;;;;;;5052048;28;20434;-47
2021/11/04 02:26:17;;;;;;;30.97;21.27;;;8.70;99.90;;;;;;5051919;28;20473;-47
2021/11/04 02:28:45;;;;;;;27.97;22.03;;;8.80;99.90;;;;;;5051649;28;20993;-46
2021/11/04 02:31:12;;;;;;;28.93;21.73;;;8.50;99.90;;;;;;5051836;28;20421;-48
2021/11/04 02:33:40;;;;;;;31.93;22.27;;;8.50;99.90;;;;;;5051800;28;20637;-46
2021/11/04 02:36:07;;;;;;;29.00;22.00;;;8.80;99.90;;;;;;5051920;28;20526;-47
2021/11/04 02:38:35;;;;;;;29.30;22.23;;;8.50;99.90;;;;;;5052031;28;20450;-47
2021/11/04 02:41:03;;;;;;;26.10;22.30;;;8.50;99.90;;;;;;5051919;28;20439;-48
2021/11/04 02:43:33;;;;;;;28.30;23.20;;;8.30;99.90;;;;;;5051859;28;20430;-47
2021/11/04 02:46:01;;;;;;;28.67;23.43;;;8.80;99.90;;;;;;5051696;28;20556;-47
2021/11/04 02:48:29;;;;;;;24.80;21.27;;;8.30;99.90;;;;;;5051081;28;20464;-47
2021/11/04 02:50:56;;;;;;;30.80;22.87;;;8.20;99.90;;;;;;5051585;28;20438;-46
2021/11/04 02:53:25;;;;;;;32.20;24.20;;;8.50;99.90;;;;;;5038203;28;20442;-47
2021/11/04 02:55:53;;;;;;;33.63;24.13;;;8.10;99.90;;;;;;5051689;28;20430;-46
2021/11/04 02:58:20;;;;;;;32.93;24.10;;;8.50;99.90;;;;;;5051158;28;20957;-46
2021/11/04 03:00:51;;;;;;;31.60;26.33;;;8.10;99.90;;;;;;5051715;28;20476;-46
2021/11/04 03:03:18;;;;;;;32.73;24.87;;;8.20;99.90;;;;;;5051531;28;20430;-48
2021/11/04 03:05:45;;;;;;;27.20;23.37;;;7.80;99.90;;;;;;5051343;28;20481;-46
2021/11/04 03:08:12;;;;;;;28.83;24.83;;;8.30;99.90;;;;;;5051022;28;21144;-46
2021/11/04 03:10:39;;;;;;;32.77;24.83;;;8.20;99.90;;;;;;5051202;28;20945;-46
2021/11/04 03:13:06;;;;;;;31.27;27.83;;;7.80;99.90;;;;;;5051239;28;20439;-48
2021/11/04 03:15:37;;;;;;;34.30;27.40;;;8.30;99.90;;;;;;5051797;28;20436;-46
2021/11/04 03:18:05;;;;;;;33.87;27.27;;;8.20;99.90;;;;;;5051102;28;20461;-46
2021/11/04 03:20:34;;;;;;;37.40;28.57;;;8.30;99.90;;;;;;5051345;28;20459;-47
2021/11/04 03:23:02;;;;;;;32.90;27.30;;;8.70;99.90;;;;;;5051250;28;20434;-48
2021/11/04 03:25:29;;;;;;;32.93;27.50;;;8.70;99.90;;;;;;5051167;28;20809;-48
2021/11/04 03:27:57;;;;;;;37.10;28.57;;;8.00;99.90;;;;;;5050659;28;20498;-46
2021/11/04 03:30:26;;;;;;;36.23;28.93;;;8.40;99.90;;;;;;5051285;28;20436;-46
2021/11/04 03:32:54;;;;;;;38.43;31.27;;;8.50;99.90;;;;;;5051842;28;20430;-48
2021/11/04 03:35:23;;;;;;;39.70;31.30;;;8.20;99.90;;;;;;5054823;28;20433;-47
2021/11/04 03:37:51;;;;;;;41.40;30.40;;;8.40;99.90;;;;;;5054639;28;20767;-46
2021/11/04 03:40:19;;;;;;;40.87;32.13;;;8.20;99.90;;;;;;5055011;28;20907;-46
2021/11/04 03:42:46;;;;;;;37.60;31.10;;;8.40;99.90;;;;;;5055176;28;20441;-47
2021/11/04 03:45:15;;;;;;;43.57;33.30;;;8.40;99.90;;;;;;5055318;28;20495;-48
2021/11/04 03:47:42;;;;;;;44.43;31.13;;;8.60;99.90;;;;;;5055287;28;20868;-47
2021/11/04 03:50:11;;;;;;;40.43;31.37;;;8.40;99.90;;;;;;5055582;28;20865;-47
2021/11/04 03:52:41;;;;;;;42.50;32.60;;;8.30;99.90;;;;;;5055334;28;20454;-47
2021/11/04 03:55:10;;;;;;;44.47;34.17;;;8.60;99.90;;;;;;5037410;28;20449;-47
2021/11/04 03:57:39;;;;;;;44.87;34.10;;;8.40;99.90;;;;;;5055216;28;20809;-47
2021/11/04 04:00:09;;;;;;;45.63;32.93;;;8.40;99.90;;;;;;5055540;28;20449;-47
2021/11/04 04:02:36;;;;;;;44.60;34.03;;;8.20;99.90;;;;;;5055968;28;20443;-46
2021/11/04 04:05:03;;;;;;;45.20;34.07;;;8.40;99.90;;;;;;5055517;28;20427;-47
2021/11/04 04:07:31;;;;;;;42.80;32.73;;;8.10;99.90;;;;;;5055494;28;20496;-46
2021/11/04 04:10:00;;;;;;;42.17;32.27;;;8.30;99.90;;;;;;5056473;28;20982;-47
2021/11/04 04:12:27;;;;;;;48.83;34.47;;;8.60;99.90;;;;;;5054894;28;20770;-47
2021/11/04 04:14:54;;;;;;;48.17;35.90;;;8.30;99.90;;;;;;5055882;28;20427;-47
2021/11/04 04:17:21;;;;;;;48.33;34.87;;;8.30;99.90;;;;;;5055865;28;20431;-46
2021/11/04 04:19:50;;;;;;;46.53;33.80;;;8.50;99.90;;;;;;5054747;28;20539;-46
2021/11/04 04:22:16;;;;;;;46.20;34.53;;;8.20;99.90;;;;;;5054807;28;20438;-48
2021/11/04 04:24:43;;;;;;;51.40;36.00;;;8.80;99.90;;;;;;5055169;28;20490;-46
2021/11/04 04:27:12;;;;;;;49.03;35.60;;;8.40;99.90;;;;;;5054200;28;20486;-47
2021/11/04 04:29:38;;;;;;;48.53;34.73;;;8.40;99.90;;;;;;5054034;28;20462;-47
2021/11/04 04:32:06;;;;;;;49.83;35.10;;;8.30;99.90;;;;;;5054649;28;20438;-46
2021/11/04 04:34:32;;;;;;;48.67;35.77;;;8.30;99.90;;;;;;5054254;28;20466;-47
2021/11/04 04:36:59;;;;;;;50.73;36.67;;;7.90;99.90;;;;;;5054493;28;20962;-46
2021/11/04 04:39:26;;;;;;;52.70;36.07;;;8.20;99.90;;;;;;5054098;28;20454;-47
2021/11/04 04:41:53;;;;;;;56.97;38.37;;;8.70;99.90;;;;;;5054579;28;20431;-47
2021/11/04 04:44:21;;;;;;;48.00;34.90;;;8.20;99.90;;;;;;5053591;28;20445;-46
2021/11/04 04:46:47;;;;;;;48.73;36.70;;;8.50;99.90;;;;;;5054317;28;20470;-47
2021/11/04 04:49:14;;;;;;;50.27;35.57;;;7.90;99.90;;;;;;5053853;28;20451;-48
2021/11/04 04:51:41;;;;;;;51.43;35.47;;;8.10;99.90;;;;;;5054000;28;20439;-48
2021/11/04 04:54:07;;;;;;;54.33;37.50;;;8.00;99.90;;;;;;5053756;28;20434;-47
2021/11/04 04:56:34;;;;;;;55.27;39.07;;;8.30;99.90;;;;;;5053387;28;20431;-47
2021/11/04 04:59:01;;;;;;;52.67;37.80;;;8.60;99.90;;;;;;5052677;28;20457;-47
2021/11/04 05:01:29;;;;;;;56.67;38.03;;;8.20;99.90;;;;;;5053869;28;20445;-47
2021/11/04 05:03:56;;;;;;;52.30;36.83;;;8.10;99.90;;;;;;5054305;28;20439;-47
2021/11/04 05:06:22;;;;;;;51.00;36.13;;;8.50;99.90;;;;;;5053721;28;20477;-47
2021/11/04 05:08:49;;;;;;;48.60;36.93;;;8.60;99.90;;;;;;5052792;28;20459;-48
2021/11/04 05:11:16;;;;;;;52.87;37.80;;;8.40;99.90;;;;;;5053167;28;20889;-47
2021/11/04 05:13:42;;;;;;;52.97;37.17;;;8.40;99.90;;;;;;5053261;28;20538;-47
2021/11/04 05:16:09;;;;;;;50.93;38.03;;;8.30;99.90;;;;;;5053268;28;20458;-49
2021/11/04 05:18:37;;;;;;;55.50;38.70;;;8.10;99.90;;;;;;5052585;28;20465;-49
2021/11/04 05:21:03;;;;;;;53.50;39.70;;;8.50;99.90;;;;;;5052784;28;20439;-48
2021/11/04 05:23:30;;;;;;;51.70;37.73;;;8.40;99.90;;;;;;5052739;28;20429;-47
2021/11/04 05:25:56;;;;;;;52.83;38.30;;;8.60;99.90;;;;;;5053727;28;20449;-47
2021/11/04 05:28:23;;;;;;;60.17;39.17;;;8.40;99.90;;;;;;5054824;28;20465;-49
2021/11/04 05:30:50;;;;;;;56.43;38.73;;;8.50;99.90;;;;;;5052787;28;20537;-48
2021/11/04 05:33:16;;;;;;;58.00;39.03;;;8.00;99.90;;;;;;5052162;28;20491;-47
2021/11/04 05:35:44;;;;;;;58.37;38.27;;;8.30;99.90;;;;;;5053665;28;20445;-47
2021/11/04 05:38:11;;;;;;;54.77;39.60;;;8.00;99.90;;;;;;5054421;28;20954;-47
2021/11/04 05:40:37;;;;;;;53.53;36.73;;;8.40;99.90;;;;;;5055148;28;20443;-50
2021/11/04 05:43:05;;;;;;;55.57;39.00;;;8.30;99.90;;;;;;5036616;28;20453;-47
2021/11/04 05:45:31;;;;;;;56.77;40.37;;;8.40;99.90;;;;;;5055598;28;20427;-47
2021/11/04 05:47:58;;;;;;;58.70;40.87;;;8.50;99.90;;;;;;5055017;28;20818;-47
2021/11/04 05:50:24;;;;;;;53.23;38.57;;;8.00;99.90;;;;;;5054888;28;20401;-47
2021/11/04 05:52:52;;;;;;;58.77;40.07;;;8.40;99.90;;;;;;5033845;28;20458;-47
2021/11/04 05:55:19;;;;;;;53.10;37.27;;;8.80;99.90;;;;;;5051537;28;20429;-47
2021/11/04 05:57:46;;;;;;;51.80;37.70;;;8.60;99.90;;;;;;5051336;28;20477;-49
2021/11/04 06:00:13;;;;;;;62.20;39.67;;;8.00;99.90;;;;;;5051997;28;20762;-48
2021/11/04 06:02:40;;;;;;;54.43;38.83;;;8.40;99.90;;;;;;5052243;28;20435;-50
2021/11/04 06:05:07;;;;;;;62.07;40.90;;;7.90;99.90;;;;;;5051833;28;20441;-47
2021/11/04 06:07:33;;;;;;;67.13;40.67;;;8.20;99.90;;;;;;5051411;28;20477;-47
2021/11/04 06:10:01;;;;;;;56.40;40.57;;;8.00;99.90;;;;;;5051258;28;20450;-47
2021/11/04 06:12:28;;;;;;;63.37;41.13;;;8.40;99.90;;;;;;5051869;28;20413;-50
2021/11/04 06:14:55;;;;;;;57.40;39.70;;;8.40;99.90;;;;;;5052069;28;20426;-47
2021/11/04 06:17:22;;;;;;;57.50;39.93;;;8.30;99.90;;;;;;5052944;28;20468;-49
2021/11/04 06:19:49;;;;;;;52.70;39.33;;;8.10;99.90;;;;;;5051542;28;20459;-49
2021/11/04 06:22:15;;;;;;;57.30;39.80;;;8.40;99.90;;;;;;5051580;28;20529;-48
2021/11/04 06:24:42;;;;;;;59.73;40.33;;;8.20;99.90;;;;;;5051776;28;20465;-47
2021/11/04 06:27:10;;;;;;;62.90;42.17;;;8.70;99.90;;;;;;5051614;28;20509;-46
2021/11/04 06:29:37;;;;;;;59.83;40.67;;;8.30;99.90;;;;;;5075471;22;20981;-50
2021/11/04 06:32:04;;;;;;;55.43;39.00;;;8.50;99.90;;;;;;5051010;28;20530;-49
2021/11/04 06:34:31;;;;;;;59.67;41.77;;;8.40;99.90;;;;;;5051095;28;20758;-48
2021/11/04 06:36:57;;;;;;;58.00;39.77;;;8.60;99.90;;;;;;5050736;28;20438;-49
2021/11/04 06:39:24;;;;;;;59.90;42.20;;;7.80;99.90;;;;;;5050069;28;20819;-50
2021/11/04 06:41:51;;;;;;;58.03;41.30;;;7.90;99.90;;;;;;5050378;28;20525;-50
2021/11/04 06:44:19;;;;;;;60.10;41.53;;;8.60;99.90;;;;;;5050599;28;20439;-50
2021/11/04 06:46:49;;;;;;;59.87;39.30;;;8.60;99.90;;;;;;5050809;28;20561;-50
2021/11/04 06:49:18;;;;;;;55.10;38.50;;;8.40;99.90;;;;;;5050103;28;20966;-51
2021/11/04 06:51:48;;;;;;;62.70;42.07;;;8.50;99.90;;;;;;5032505;28;20464;-51
2021/11/04 06:54:16;;;;;;;60.00;39.80;;;8.80;99.90;;;;;;5032860;28;20471;-50
2021/11/04 06:56:44;;;;;;;55.87;39.27;;;8.60;99.90;;;;;;5050390;28;20439;-50
2021/11/04 06:59:18;;;;;;;59.43;40.07;;;8.70;99.90;;;;;;5049640;28;20527;-50
2021/11/04 07:01:51;;;;;;;63.10;39.90;;;8.30;99.90;;;;;;5050503;28;20441;-50
2021/11/04 07:04:27;;;;;;;58.30;40.37;;;8.50;99.90;;;;;;5050697;28;20492;-50
2021/11/04 07:07:01;;;;;;;62.27;38.97;;;8.40;99.90;;;;;;5050991;28;20463;-50
2021/11/04 07:09:29;;;;;;;61.70;40.67;;;8.10;99.90;;;;;;5036337;28;20977;-50
2021/11/04 07:11:57;;;;;;;56.63;39.13;;;8.40;99.90;;;;;;5054458;28;20437;-50
2021/11/04 07:14:28;;;;;;;58.00;39.97;;;8.50;99.90;;;;;;5054683;28;20438;-50
2021/11/04 07:16:56;;;;;;;64.87;41.70;;;8.10;99.90;;;;;;5054921;28;20438;-49
2021/11/04 07:19:23;;;;;;;54.77;39.90;;;8.40;99.90;;;;;;5053820;28;20446;-49
2021/11/04 07:22:03;;;;;;;53.10;36.83;;;8.80;99.90;;;;;;5054422;28;20474;-50
2021/11/04 07:24:33;;;;;;;51.70;36.97;;;8.40;99.90;;;;;;5054507;28;20523;-50
2021/11/04 07:27:14;;;;;;;56.70;40.30;;;8.30;99.90;;;;;;5053987;28;20476;-50
2021/11/04 07:29:44;;;;;;;61.77;39.00;;;8.10;99.90;;;;;;5053185;28;20480;-50
2021/11/04 07:32:16;;;;;;;59.70;39.43;;;8.80;99.90;;;;;;5035936;28;20446;-49
2021/11/04 07:34:45;;;;;;;53.63;37.43;;;8.30;99.90;;;;;;5053678;28;20443;-50
2021/11/04 07:37:13;;;;;;;58.10;40.60;;;8.80;99.90;;;;;;5053921;28;20429;-50
2021/11/04 07:39:42;;;;;;;60.67;40.27;;;8.50;99.90;;;;;;5053480;28;20489;-50
2021/11/04 07:42:10;;;;;;;59.50;39.40;;;8.20;99.90;;;;;;5053354;28;20420;-49
2021/11/04 07:44:38;;;;;;;52.73;38.57;;;7.90;99.90;;;;;;5054097;28;20489;-56
2021/11/04 07:47:06;;;;;;;57.20;38.90;;;8.40;99.90;;;;;;5053721;28;20477;-49
2021/11/04 07:49:34;;;;;;;53.03;37.57;;;8.50;99.90;;;;;;5053367;28;20552;-48
2021/11/04 07:52:01;;;;;;;57.73;37.33;;;8.40;99.90;;;;;;5053834;28;20434;-49
2021/11/04 07:54:30;;;;;;;56.67;37.63;;;8.50;99.90;;;;;;5053374;28;20478;-50
2021/11/04 07:56:56;;;;;;;61.70;40.67;;;8.50;99.90;;;;;;5053683;28;20815;-48
2021/11/04 07:59:24;;;;;;;56.17;38.30;;;8.10;99.90;;;;;;5052923;28;20461;-49
2021/11/04 08:01:51;;;;;;;51.40;37.73;;;8.80;99.90;;;;;;5053673;28;20452;-49
2021/11/04 08:04:17;;;;;;;53.63;39.30;;;8.40;99.90;;;;;;5053745;28;20441;-49
2021/11/04 08:06:45;;;;;;;55.23;38.03;;;8.30;99.90;;;;;;5053155;28;20442;-49
2021/11/04 08:09:12;;;;;;;58.53;41.80;;;7.90;99.90;;;;;;5052638;28;20458;-50
2021/11/04 08:11:39;;;;;;;53.50;36.43;;;8.40;99.90;;;;;;5053265;28;20606;-50
2021/11/04 08:14:06;;;;;;;60.97;38.87;;;8.20;99.90;;;;;;5053532;28;20426;-50
2021/11/04 08:16:32;;;;;;;56.13;37.83;;;8.50;99.90;;;;;;5053265;28;20458;-49
2021/11/04 08:18:59;;;;;;;57.27;38.10;;;8.40;99.90;;;;;;5051856;28;20591;-50
2021/11/04 08:21:26;;;;;;;55.13;36.77;;;8.50;99.90;;;;;;5053561;28;20542;-50
2021/11/04 08:23:54;;;;;;;55.20;39.40;;;7.80;99.90;;;;;;5053206;28;20434;-50
2021/11/04 08:26:22;;;;;;;51.60;35.07;;;8.30;99.90;;;;;;5035501;28;20450;-50
2021/11/04 08:28:48;;;;;;;56.40;38.50;;;8.10;99.90;;;;;;5052734;28;20482;-49
2021/11/04 08:31:15;;;;;;;65.53;40.70;;;8.40;99.90;;;;;;5053734;28;20438;-49
2021/11/04 08:33:42;;;;;;;56.47;38.10;;;8.20;99.90;;;;;;5052795;28;20441;-51
2021/11/04 08:36:08;;;;;;;61.27;40.43;;;8.40;99.90;;;;;;5048517;28;20816;-49
2021/11/04 08:38:36;;;;;;;59.00;39.00;;;8.30;99.90;;;;;;5026382;28;20553;-52
2021/11/04 08:41:04;;;;;;;60.07;39.20;;;8.30;99.90;;;;;;5052458;28;20459;-50
2021/11/04 08:43:31;;;;;;;55.13;37.53;;;8.30;99.90;;;;;;5052866;28;20456;-50
2021/11/04 08:45:57;;;;;;;55.67;38.90;;;8.50;99.90;;;;;;5052279;28;20446;-50
2021/11/04 08:48:24;;;;;;;59.27;36.77;;;8.70;99.90;;;;;;5052258;28;20933;-51
2021/11/04 08:50:51;;;;;;;53.57;36.67;;;8.40;99.90;;;;;;5034818;28;20453;-50
2021/11/04 08:53:19;;;;;;;60.00;39.57;;;8.40;99.90;;;;;;5052050;28;20536;-50
2021/11/04 08:55:46;;;;;;;61.33;39.80;;;8.70;99.90;;;;;;5052475;28;20435;-51
2021/11/04 08:58:14;;;;;;;62.83;38.70;;;8.40;99.90;;;;;;5052352;28;20552;-51
2021/11/04 09:00:41;;;;;;;50.40;35.20;;;8.10;99.90;;;;;;5052937;28;20491;-51
2021/11/04 09:03:09;;;;;;;54.13;39.50;;;8.20;99.90;;;;;;5051994;28;20441;-51
2021/11/04 09:05:38;;;;;;;55.33;36.90;;;8.40;99.90;;;;;;5052600;28;20671;-50
2021/11/04 09:08:06;;;;;;;53.33;36.90;;;8.60;99.90;;;;;;5052031;28;20539;-50
2021/11/04 09:10:33;;;;;;;55.57;35.70;;;8.30;99.90;;;;;;5051957;28;20514;-50
2021/11/04 09:13:00;;;;;;;51.40;37.07;;;8.00;99.90;;;;;;5034396;28;20551;-50
2021/11/04 09:15:28;;;;;;;48.23;34.03;;;8.40;99.90;;;;;;5052482;28;20404;-50
2021/11/04 09:17:55;;;;;;;53.27;34.80;;;8.00;99.90;;;;;;5051366;28;20440;-50
2021/11/04 09:20:22;;;;;;;51.97;34.80;;;8.40;99.90;;;;;;5051927;28;20437;-50
2021/11/04 09:22:50;;;;;;;47.23;33.37;;;8.20;99.90;;;;;;5051897;28;20445;-50
2021/11/04 09:25:19;;;;;;;46.80;33.37;;;8.40;99.90;;;;;;5051581;28;20440;-50
2021/11/04 09:27:46;;;;;;;49.57;33.93;;;8.40;99.90;;;;;;5051578;28;20480;-50
2021/11/04 09:30:13;;;;;;;46.90;32.90;;;8.50;99.90;;;;;;5050668;28;20572;-50
2021/11/04 09:32:42;;;;;;;55.75;41.28;;;8.40;99.90;;;;;;5050836;28;20530;-50
2021/11/04 09:35:09;;;;;;;48.47;34.77;;;8.30;99.90;;;;;;5051609;28;20277;-50
2021/11/04 09:37:37;;;;;;;56.93;36.10;;;8.20;99.90;;;;;;5051415;28;20449;-51
2021/11/04 09:40:04;;;;;;;48.43;33.90;;;8.50;99.90;;;;;;5051643;28;20457;-49
2021/11/04 09:42:31;;;;;;;47.13;33.60;;;8.30;99.90;;;;;;5051576;28;20903;-50
2021/11/04 09:44:58;;;;;;;47.50;32.23;;;8.30;99.90;;;;;;5044705;28;20858;-50
2021/11/04 09:47:28;;;;;;;42.27;32.43;;;8.30;99.90;;;;;;5051223;28;20526;-50
2021/11/04 09:49:57;;;;;;;48.40;33.60;;;8.30;99.90;;;;;;5051020;28;20878;-50
2021/11/04 09:52:24;;;;;;;50.53;31.80;;;8.30;99.90;;;;;;5051581;28;20845;-51
2021/11/04 09:54:53;;;;;;;43.87;30.37;;;8.40;99.90;;;;;;5051370;28;20437;-50
2021/11/04 09:57:20;;;;;;;41.27;27.87;;;8.40;99.90;;;;;;5051464;28;20447;-51
2021/11/04 09:59:47;;;;;;;42.57;28.50;;;8.20;99.90;;;;;;5050797;28;20461;-50
2021/11/04 10:02:19;;;;;;;40.87;26.43;;;7.80;99.90;;;;;;5051377;28;20439;-50
2021/11/04 10:04:46;;;;;;;38.33;26.40;;;8.20;99.90;;;;;;5051666;28;20408;-50
2021/11/04 10:07:15;;;;;;;36.87;25.80;;;8.20;99.90;;;;;;5051574;28;20932;-49
2021/11/04 10:09:43;;;;;;;31.07;24.47;;;8.20;99.90;;;;;;5051170;28;20489;-49
2021/11/04 10:12:12;;;;;;;32.97;24.03;;;8.30;99.90;;;;;;5051235;28;20452;-49
2021/11/04 10:14:39;;;;;;;39.80;25.47;;;8.00;99.90;;;;;;5051261;28;20987;-49
2021/11/04 10:17:23;;;;;;;29.90;21.00;;;8.10;99.90;;;;;;5051056;28;20938;-49
2021/11/04 10:19:50;;;;;;;31.23;21.53;;;8.60;99.90;;;;;;5050833;28;20834;-51
2021/11/04 10:22:25;;;;;;;30.47;21.30;;;8.20;99.90;;;;;;5050815;28;20448;-50
2021/11/04 10:24:52;;;;;;;28.30;20.37;;;7.80;99.90;;;;;;5051246;28;20445;-48
2021/11/04 10:27:30;;;;;;;27.53;21.70;;;8.20;99.90;;;;;;5050664;28;20435;-49
2021/11/04 10:29:56;;;;;;;27.80;19.40;;;8.10;99.90;;;;;;5032512;28;20492;-49
2021/11/04 10:32:32;;;;;;;21.90;17.63;;;8.00;99.90;;;;;;5050906;28;20445;-50
2021/11/04 10:35:06;;;;;;;25.10;18.83;;;8.20;99.90;;;;;;5050606;28;20443;-50
2021/11/04 10:37:42;;;;;;;23.90;18.10;;;8.50;99.90;;;;;;5051065;28;20461;-50
2021/11/04 10:40:15;;;;;;;24.60;17.23;;;8.10;99.90;;;;;;5050763;28;20460;-50
2021/11/04 10:42:50;;;;;;;21.87;17.30;;;8.00;99.90;;;;;;5053355;28;20544;-48
2021/11/04 10:45:22;;;;;;;27.63;18.60;;;7.90;99.90;;;;;;5054792;28;20448;-49
2021/11/04 10:48:10;;;;;;;21.30;16.47;;;8.00;99.90;;;;;;5036606;28;20464;-50
2021/11/04 10:50:40;;;;;;;23.00;17.20;;;8.00;99.90;;;;;;5054832;28;20430;-50
2021/11/04 10:53:09;;;;;;;23.73;17.20;;;7.90;99.90;;;;;;5055016;28;20799;-49
2021/11/04 10:55:36;;;;;;;20.50;16.50;;;8.10;99.90;;;;;;5054994;28;20440;-50
2021/11/04 10:58:06;;;;;;;19.83;16.90;;;8.00;99.90;;;;;;5054204;28;20429;-50
2021/11/04 11:00:38;;;;;;;19.77;15.57;;;8.20;99.90;;;;;;5036273;28;20431;-51
2021/11/04 11:03:12;;;;;;;19.30;15.07;;;8.20;99.90;;;;;;5054719;28;20509;-50
2021/11/04 11:05:42;;;;;;;22.17;16.20;;;8.00;99.90;;;;;;5054674;28;20435;-50
2021/11/04 11:08:11;;;;;;;22.03;15.87;;;7.90;99.90;;;;;;5054059;28;20567;-50
2021/11/04 11:10:38;;;;;;;21.30;15.87;;;7.80;99.90;;;;;;5054292;28;20455;-51
2021/11/04 11:13:06;;;;;;;20.27;14.50;;;7.80;99.90;;;;;;5054334;28;20445;-48
2021/11/04 11:15:33;;;;;;;18.83;14.03;;;8.00;99.90;;;;;;5054253;28;20436;-50
2021/11/04 11:18:02;;;;;;;17.20;14.33;;;8.00;99.90;;;;;;5053938;28;20437;-49
2021/11/04 11:20:29;;;;;;;17.30;13.90;;;8.10;99.90;;;;;;5054198;28;20468;-50
2021/11/04 11:22:56;;;;;;;19.90;16.73;;;8.10;99.90;;;;;;5053444;28;20463;-49
2021/11/04 11:25:25;;;;;;;22.13;13.87;;;8.20;99.90;;;;;;5054250;28;20226;-50
2021/11/04 11:27:53;;;;;;;15.03;13.07;;;8.20;99.90;;;;;;5053773;28;20729;-49
2021/11/04 11:30:20;;;;;;;16.50;12.50;;;8.20;99.90;;;;;;5053972;28;20455;-50
2021/11/04 11:32:50;;;;;;;20.23;13.43;;;8.20;99.90;;;;;;5054400;28;20841;-52
2021/11/04 11:35:19;;;;;;;16.00;13.50;;;8.50;99.90;;;;;;5054213;28;20533;-50
2021/11/04 11:38:01;;;;;;;15.93;11.50;;;8.20;99.90;;;;;;5053367;28;20852;-51
2021/11/04 11:40:31;;;;;;;16.00;11.97;;;8.10;99.90;;;;;;5054241;28;20436;-52
2021/11/04 11:42:59;;;;;;;16.87;10.90;;;8.60;99.90;;;;;;5053958;28;20437;-50
2021/11/04 11:45:27;;;;;;;12.30;10.63;;;8.20;99.90;;;;;;5035922;28;20547;-51
2021/11/04 11:47:54;;;;;;;13.90;11.00;;;8.10;99.90;;;;;;5053822;28;20434;-51
2021/11/04 11:50:29;;;;;;;18.73;11.83;;;8.40;99.90;;;;;;5054268;28;20514;-51
2021/11/04 11:52:58;;;;;;;12.50;10.30;;;7.90;99.90;;;;;;5053532;28;20467;-50
2021/11/04 11:55:36;;;;;;;12.87;10.47;;;8.30;99.90;;;;;;5053122;28;20437;-50
2021/11/04 11:58:31;;;;;;;12.80;10.20;;;8.10;99.90;;;;;;5053032;28;20437;-50
2021/11/04 12:01:03;;;;;;;18.27;11.20;;;8.20;99.90;;;;;;5053540;28;20470;-50
2021/11/04 12:03:53;;;;;;;12.80;9.70;;;8.40;99.90;;;;;;5053433;28;20210;-51
2021/11/04 12:06:50;;;;;;;11.43;9.67;;;8.20;99.90;;;;;;5053185;28;20444;-51
2021/11/04 12:09:38;;;;;;;12.40;9.53;;;8.30;99.90;;;;;;5052151;28;20534;-50
2021/11/04 12:12:08;;;;;;;12.77;10.07;;;8.50;99.90;;;;;;5053307;28;20427;-51
2021/11/04 12:14:36;;;;;;;13.90;10.00;;;8.40;99.90;;;;;;5053225;28;20443;-51
2021/11/04 12:17:16;;;;;;;13.53;10.13;;;8.10;99.90;;;;;;5052598;28;20442;-51
2021/11/04 12:19:46;;;;;;;11.00;9.37;;;8.40;99.90;;;;;;5053098;28;20768;-51
2021/11/04 12:22:24;;;;;;;11.73;10.52;;;8.50;99.90;;;;;;5052583;28;20509;-49
2021/11/04 12:24:52;;;;;;;12.38;9.98;;;8.60;99.90;;;;;;5052205;28;20430;-48
2021/11/04 12:27:22;;;;;;;9.50;8.50;;;8.50;99.90;;;;;;5034784;28;20233;-49
2021/11/04 12:29:50;;;;;;;12.87;10.70;;;8.10;99.90;;;;;;5052543;28;20822;-49
2021/11/04 12:32:18;;;;;;;11.23;9.30;;;8.40;99.90;;;;;;5052952;28;20954;-50
2021/11/04 12:34:54;;;;;;;10.57;7.90;;;8.50;99.90;;;;;;5052629;28;20427;-50
2021/11/04 12:37:21;;;;;;;9.60;7.67;;;8.50;99.90;;;;;;5052838;28;20805;-49
2021/11/04 12:39:48;;;;;;;11.73;9.23;;;8.90;99.90;;;;;;5052283;28;20549;-50
2021/11/04 12:42:16;;;;;;;9.60;8.20;;;8.80;99.90;;;;;;5051315;28;20438;-50
2021/11/04 12:44:45;;;;;;;8.93;8.00;;;8.70;99.90;;;;;;5052591;28;20450;-50